createdAt,value
2019-03-01T00:02:05.712Z,76.79
2019-03-01T00:04:50.433Z,76.80
2019-03-01T00:07:57.634Z,76.75
2019-03-01T00:10:33.246Z,76.84
2019-03-01T00:13:18.144Z,76.89
2019-03-01T00:15:53.364Z,76.85
2019-03-01T00:18:26.078Z,77.03
2019-03-01T00:21:01.477Z,77.17
2019-03-01T00:24:00.549Z,77.21
2019-03-01T00:26:54.445Z,77.39
2019-03-01T00:29:39.188Z,77.55
2019-03-01T00:32:31.584Z,78.01
2019-03-01T00:35:27.236Z,77.96
2019-03-01T00:38:02.632Z,78.05
2019-03-01T00:40:53.287Z,78.03
2019-03-01T00:43:43.782Z,77.75
2019-03-01T00:46:13.407Z,77.38
2019-03-01T00:48:43.032Z,77.05
2019-03-01T00:51:13.937Z,76.78
2019-03-01T00:53:43.623Z,76.39
2019-03-01T00:56:13.249Z,76.28
2019-03-01T00:58:44.518Z,76.32
2019-03-01T01:01:15.133Z,76.33
2019-03-01T01:03:46.132Z,76.30
2019-03-01T01:06:15.932Z,76.33
2019-03-01T01:08:45.653Z,76.35
2019-03-01T01:14:03.859Z,76.43
2019-03-01T01:16:33.475Z,76.56
2019-03-01T01:19:03.100Z,76.39
2019-03-01T01:21:34.731Z,76.49
2019-03-01T01:24:04.427Z,76.60
2019-03-01T01:26:34.115Z,76.40
2019-03-01T01:29:03.774Z,76.63
2019-03-01T01:31:33.406Z,76.81
2019-03-01T01:34:05.923Z,76.88
2019-03-01T01:36:35.937Z,76.87
2019-03-01T01:39:07.862Z,76.98
2019-03-01T01:41:37.760Z,77.04
2019-03-01T01:44:07.413Z,77.10
2019-03-01T01:46:37.114Z,77.03
2019-03-01T01:49:06.867Z,77.03
2019-03-01T01:51:36.629Z,77.17
2019-03-01T01:54:06.400Z,77.57
2019-03-01T01:56:36.149Z,77.82
2019-03-01T01:59:06.170Z,77.88
2019-03-01T02:01:35.911Z,77.93
2019-03-01T02:04:05.655Z,77.59
2019-03-01T02:06:35.483Z,77.67
2019-03-01T02:09:08.248Z,77.79
2019-03-01T02:11:37.871Z,78.04
2019-03-01T02:14:07.925Z,78.33
2019-03-01T02:16:37.554Z,78.54
2019-03-01T02:19:07.347Z,78.43
2019-03-01T02:21:37.978Z,78.45
2019-03-01T02:24:07.615Z,78.60
2019-03-01T02:26:37.241Z,79.06
2019-03-01T02:29:07.438Z,79.28
2019-03-01T02:31:37.810Z,79.63
2019-03-01T02:34:07.437Z,79.86
2019-03-01T02:36:38.089Z,79.91
2019-03-01T02:39:07.952Z,79.90
2019-03-01T02:41:38.444Z,79.67
2019-03-01T02:44:08.214Z,79.53
2019-03-01T02:46:37.845Z,79.55
2019-03-01T02:49:07.458Z,79.58
2019-03-01T02:51:37.117Z,79.61
2019-03-01T02:54:06.803Z,79.33
2019-03-01T02:56:36.607Z,79.44
2019-03-01T02:59:06.859Z,79.62
2019-03-01T03:01:36.484Z,79.87
2019-03-01T03:04:06.109Z,80.05
2019-03-01T03:06:40.375Z,80.14
2019-03-01T03:09:10.603Z,80.10
2019-03-01T03:11:40.235Z,80.33
2019-03-01T03:14:10.179Z,80.46
2019-03-01T03:16:40.774Z,80.59
2019-03-01T03:19:10.396Z,80.79
2019-03-01T03:21:40.056Z,81.02
2019-03-01T03:24:09.754Z,81.10
2019-03-01T03:26:39.370Z,80.97
2019-03-01T03:29:09.438Z,80.91
2019-03-01T03:31:40.759Z,80.61
2019-03-01T03:34:10.870Z,80.22
2019-03-01T03:36:41.104Z,80.27
2019-03-01T03:39:12.188Z,80.30
2019-03-01T03:41:42.474Z,80.39
2019-03-01T03:44:12.250Z,80.35
2019-03-01T03:46:41.858Z,80.43
2019-03-01T03:49:11.480Z,80.52
2019-03-01T03:51:41.298Z,80.58
2019-03-01T03:54:11.883Z,80.49
2019-03-01T03:56:41.523Z,80.51
2019-03-01T03:59:11.553Z,80.80
2019-03-01T04:01:41.187Z,80.93
2019-03-01T04:04:11.955Z,81.06
2019-03-01T04:06:42.247Z,81.08
2019-03-01T04:09:12.845Z,81.22
2019-03-01T04:11:43.653Z,81.49
2019-03-01T04:14:13.323Z,81.46
2019-03-01T04:16:43.203Z,81.48
2019-03-01T04:19:13.130Z,81.38
2019-03-01T04:21:42.820Z,81.16
2019-03-01T04:24:12.467Z,80.95
2019-03-01T04:26:42.071Z,81.01
2019-03-01T04:29:11.729Z,81.40
2019-03-01T04:31:41.681Z,81.54
2019-03-01T04:34:12.098Z,81.42
2019-03-01T04:36:41.754Z,81.45
2019-03-01T04:39:11.373Z,81.37
2019-03-01T04:41:41.065Z,81.50
2019-03-01T04:44:10.743Z,81.33
2019-03-01T04:46:40.362Z,81.30
2019-03-01T04:49:09.979Z,81.45
2019-03-01T04:51:41.210Z,81.38
2019-03-01T04:54:10.860Z,81.39
2019-03-01T04:56:40.547Z,81.07
2019-03-01T04:59:10.341Z,81.13
2019-03-01T05:01:39.973Z,81.19
2019-03-01T05:04:09.594Z,81.20
2019-03-01T05:06:40.152Z,81.47
2019-03-01T05:09:10.043Z,81.95
2019-03-01T05:11:41.310Z,81.79
2019-03-01T05:14:12.645Z,81.21
2019-03-01T05:16:42.277Z,81.06
2019-03-01T05:19:12.567Z,80.89
2019-03-01T05:21:42.299Z,80.64
2019-03-01T05:24:12.040Z,80.47
2019-03-01T05:26:41.667Z,80.41
2019-03-01T05:29:12.521Z,80.61
2019-03-01T05:31:42.138Z,80.81
2019-03-01T05:34:11.863Z,81.04
2019-03-01T05:36:41.519Z,81.13
2019-03-01T05:39:11.410Z,81.08
2019-03-01T05:41:41.159Z,81.03
2019-03-01T05:44:10.821Z,81.13
2019-03-01T05:46:40.451Z,81.11
2019-03-01T05:49:10.078Z,80.91
2019-03-01T05:51:39.862Z,81.05
2019-03-01T05:54:09.499Z,80.99
2019-03-01T05:56:39.196Z,80.81
2019-03-01T05:59:17.519Z,80.52
2019-03-01T06:01:53.075Z,80.29
2019-03-01T06:04:26.926Z,80.33
2019-03-01T06:07:17.959Z,80.31
2019-03-01T06:09:53.236Z,80.28
2019-03-01T06:12:47.349Z,79.52
2019-03-01T06:15:36.749Z,79.34
2019-03-01T06:18:28.863Z,79.05
2019-03-01T06:21:25.630Z,78.99
2019-03-01T06:24:03.894Z,78.78
2019-03-01T06:27:02.351Z,78.54
2019-03-01T06:29:41.755Z,78.44
2019-03-01T06:32:18.663Z,78.28
2019-03-01T06:34:57.077Z,78.05
2019-03-01T06:37:55.621Z,77.84
2019-03-01T06:40:35.743Z,77.54
2019-03-01T06:43:26.400Z,77.25
2019-03-01T06:46:05.515Z,77.09
2019-03-01T06:48:43.524Z,76.92
2019-03-01T06:51:14.791Z,76.86
2019-03-01T06:53:44.417Z,76.74
2019-03-01T06:56:14.086Z,76.74
2019-03-01T06:58:43.716Z,76.65
2019-03-01T07:01:20.816Z,76.75
2019-03-01T07:07:39.608Z,76.89
2019-03-01T07:14:09.845Z,75.83
2019-03-01T07:16:39.468Z,75.21
2019-03-01T07:19:09.100Z,75.23
2019-03-01T07:21:38.954Z,75.02
2019-03-01T07:24:09.332Z,74.79
2019-03-01T07:26:39.819Z,74.49
2019-03-01T07:29:09.603Z,74.31
2019-03-01T07:31:39.294Z,74.12
2019-03-01T07:34:08.934Z,73.78
2019-03-01T07:36:38.612Z,73.46
2019-03-01T07:39:09.884Z,73.15
2019-03-01T07:41:39.516Z,72.88
2019-03-01T07:44:09.491Z,72.73
2019-03-01T07:46:39.128Z,72.56
2019-03-01T07:49:08.760Z,72.30
2019-03-01T07:51:38.424Z,71.96
2019-03-01T07:54:08.050Z,71.63
2019-03-01T07:56:39.927Z,71.35
2019-03-01T07:59:09.353Z,71.34
2019-03-01T08:01:38.983Z,71.24
2019-03-01T08:04:10.254Z,71.14
2019-03-01T08:06:39.916Z,70.94
2019-03-01T08:09:13.317Z,70.71
2019-03-01T08:11:42.931Z,70.54
2019-03-01T08:14:13.387Z,70.37
2019-03-01T08:16:44.393Z,70.56
2019-03-01T08:19:17.045Z,70.82
2019-03-01T08:21:47.508Z,70.83
2019-03-01T08:24:16.835Z,70.26
2019-03-01T08:26:46.557Z,69.92
2019-03-01T08:29:17.474Z,69.35
2019-03-01T08:31:47.378Z,68.79
2019-03-01T08:34:17.790Z,68.24
2019-03-01T08:36:48.440Z,67.86
2019-03-01T08:39:18.074Z,66.71
2019-03-01T08:41:47.699Z,65.88
2019-03-01T08:44:19.316Z,65.22
2019-03-01T08:46:48.716Z,64.66
2019-03-01T08:49:18.343Z,63.90
2019-03-01T08:51:47.984Z,63.46
2019-03-01T08:54:17.691Z,62.33
2019-03-01T08:56:50.283Z,61.27
2019-03-01T08:59:18.953Z,60.22
2019-03-01T09:01:48.675Z,59.27
2019-03-01T09:04:21.380Z,57.49
2019-03-01T09:06:50.299Z,56.94
2019-03-01T09:09:20.899Z,56.64
2019-03-01T09:11:51.479Z,56.06
2019-03-01T09:14:22.713Z,55.92
2019-03-01T09:16:52.467Z,54.88
2019-03-01T09:19:25.247Z,53.97
2019-03-01T09:21:54.011Z,53.36
2019-03-01T09:24:25.721Z,53.07
2019-03-01T09:26:55.978Z,52.87
2019-03-01T09:29:26.233Z,52.66
2019-03-01T09:31:57.883Z,52.55
2019-03-01T09:34:32.030Z,52.84
2019-03-01T09:37:00.265Z,53.23
2019-03-01T09:39:32.532Z,53.38
2019-03-01T09:42:04.398Z,53.62
2019-03-01T09:44:34.609Z,53.84
2019-03-01T09:47:04.738Z,53.97
2019-03-01T09:49:34.556Z,53.92
2019-03-01T09:52:04.505Z,53.80
2019-03-01T09:54:34.780Z,54.08
2019-03-01T09:57:06.959Z,54.35
2019-03-01T09:59:36.694Z,54.17
2019-03-01T10:02:06.309Z,53.26
2019-03-01T10:04:37.484Z,52.81
2019-03-01T10:07:09.487Z,52.41
2019-03-01T10:09:40.043Z,51.82
2019-03-01T10:12:10.130Z,51.22
2019-03-01T10:14:40.050Z,50.87
2019-03-01T10:17:10.862Z,50.71
2019-03-01T10:19:40.675Z,51.08
2019-03-01T10:22:10.997Z,51.74
2019-03-01T10:24:41.188Z,51.51
2019-03-01T10:27:12.665Z,52.13
2019-03-01T10:29:42.348Z,52.37
2019-03-01T10:32:12.592Z,52.42
2019-03-01T10:34:43.483Z,52.34
2019-03-01T10:37:13.129Z,52.28
2019-03-01T10:39:42.742Z,52.44
2019-03-01T10:42:12.613Z,52.40
2019-03-01T10:44:42.951Z,52.39
2019-03-01T10:47:13.495Z,52.51
2019-03-01T10:49:43.611Z,52.71
2019-03-01T10:52:13.375Z,52.95
2019-03-01T10:54:43.160Z,52.24
2019-03-01T10:57:12.776Z,51.92
2019-03-01T10:59:43.734Z,51.32
2019-03-01T11:02:14.561Z,50.91
2019-03-01T11:04:44.213Z,50.46
2019-03-01T11:07:15.243Z,50.38
2019-03-01T11:09:46.503Z,50.77
2019-03-01T11:12:17.238Z,51.18
2019-03-01T11:14:47.642Z,51.52
2019-03-01T11:17:18.517Z,52.06
2019-03-01T11:19:49.181Z,52.11
2019-03-01T11:22:18.829Z,52.32
2019-03-01T11:24:50.009Z,52.23
2019-03-01T11:27:19.754Z,52.43
2019-03-01T11:29:51.507Z,52.87
2019-03-01T11:32:21.154Z,53.38
2019-03-01T11:34:51.854Z,54.27
2019-03-01T11:37:21.534Z,55.15
2019-03-01T11:39:51.631Z,56.05
2019-03-01T11:42:22.009Z,55.78
2019-03-01T11:44:51.789Z,55.35
2019-03-01T11:47:21.528Z,55.01
2019-03-01T11:49:51.148Z,54.71
2019-03-01T11:52:20.793Z,53.54
2019-03-01T11:54:51.464Z,52.37
2019-03-01T11:57:21.248Z,51.97
2019-03-01T11:59:51.609Z,52.16
2019-03-01T12:02:21.900Z,52.69
2019-03-01T12:04:51.516Z,53.14
2019-03-01T12:07:21.162Z,53.17
2019-03-01T12:09:50.776Z,53.09
2019-03-01T12:12:20.760Z,52.71
2019-03-01T12:14:50.552Z,52.66
2019-03-01T12:17:21.001Z,52.62
2019-03-01T12:19:50.612Z,52.35
2019-03-01T12:22:20.355Z,51.95
2019-03-01T12:24:49.979Z,51.64
2019-03-01T12:27:20.064Z,50.76
2019-03-01T12:29:49.825Z,50.67
2019-03-01T12:32:19.557Z,50.60
2019-03-01T12:34:49.449Z,50.58
2019-03-01T12:37:19.281Z,50.38
2019-03-01T12:39:49.254Z,50.17
2019-03-01T12:42:18.875Z,49.81
2019-03-01T12:44:48.544Z,49.57
2019-03-01T12:47:18.192Z,49.38
2019-03-01T12:49:47.819Z,49.09
2019-03-01T12:52:17.476Z,48.64
2019-03-01T12:54:47.087Z,47.97
2019-03-01T12:57:16.733Z,47.10
2019-03-01T12:59:46.611Z,47.04
2019-03-01T13:02:16.234Z,47.06
2019-03-01T13:04:45.854Z,46.95
2019-03-01T13:07:15.596Z,46.49
2019-03-01T13:09:45.335Z,46.17
2019-03-01T13:12:15.239Z,45.34
2019-03-01T13:14:44.905Z,43.27
2019-03-01T13:17:14.524Z,41.30
2019-03-01T13:19:44.162Z,40.73
2019-03-01T13:22:13.839Z,41.23
2019-03-01T13:24:43.469Z,40.83
2019-03-01T13:27:14.160Z,41.95
2019-03-01T13:29:45.630Z,43.00
2019-03-01T13:32:15.426Z,44.27
2019-03-01T13:34:45.805Z,44.76
2019-03-01T13:37:20.132Z,45.28
2019-03-01T13:39:48.626Z,45.21
2019-03-01T13:42:19.341Z,45.24
2019-03-01T13:44:49.127Z,46.06
2019-03-01T13:47:18.751Z,46.78
2019-03-01T13:49:48.435Z,47.44
2019-03-01T13:52:18.260Z,48.08
2019-03-01T13:54:47.981Z,48.12
2019-03-01T13:57:17.605Z,45.98
2019-03-01T13:59:47.730Z,41.37
2019-03-01T14:02:18.483Z,40.06
2019-03-01T14:04:48.191Z,40.03
2019-03-01T14:07:17.972Z,40.14
2019-03-01T14:09:47.612Z,39.83
2019-03-01T14:12:17.370Z,39.61
2019-03-01T14:14:47.675Z,40.04
2019-03-01T14:17:17.467Z,40.64
2019-03-01T14:19:47.207Z,39.11
2019-03-01T14:22:16.870Z,38.90
2019-03-01T14:24:46.959Z,37.47
2019-03-01T14:27:16.756Z,35.12
2019-03-01T14:29:52.507Z,34.01
2019-03-01T14:32:20.921Z,34.58
2019-03-01T14:34:49.872Z,35.97
2019-03-01T14:37:19.607Z,37.72
2019-03-01T14:39:49.482Z,39.29
2019-03-01T14:42:19.115Z,40.65
2019-03-01T14:44:50.342Z,41.95
2019-03-01T14:47:19.957Z,42.96
2019-03-01T14:49:49.847Z,43.87
2019-03-01T14:52:21.371Z,44.76
2019-03-01T14:54:50.814Z,45.60
2019-03-01T14:57:23.755Z,46.13
2019-03-01T14:59:56.944Z,46.69
2019-03-01T15:02:32.370Z,47.35
2019-03-01T15:05:05.595Z,48.03
2019-03-01T15:07:36.296Z,48.63
2019-03-01T15:10:12.357Z,48.62
2019-03-01T15:12:43.115Z,48.66
2019-03-01T15:15:13.982Z,48.84
2019-03-01T15:17:44.639Z,49.06
2019-03-01T15:20:17.264Z,49.48
2019-03-01T15:22:48.712Z,49.49
2019-03-01T15:25:18.316Z,49.75
2019-03-01T15:27:47.974Z,50.35
2019-03-01T15:30:19.022Z,51.01
2019-03-01T15:32:48.628Z,51.44
2019-03-01T15:35:18.332Z,51.52
2019-03-01T15:37:47.955Z,52.11
2019-03-01T15:40:17.651Z,52.58
2019-03-01T15:42:47.309Z,52.95
2019-03-01T15:45:16.920Z,53.34
2019-03-01T15:47:46.557Z,53.43
2019-03-01T15:50:16.299Z,53.34
2019-03-01T15:52:49.659Z,53.26
2019-03-01T15:55:17.303Z,53.63
2019-03-01T15:57:47.098Z,53.86
2019-03-01T16:00:25.692Z,54.36
2019-03-01T16:02:54.102Z,54.61
2019-03-01T16:05:23.762Z,54.65
2019-03-01T16:07:53.463Z,55.01
2019-03-01T16:10:23.121Z,55.21
2019-03-01T16:12:52.843Z,55.27
2019-03-01T16:15:22.582Z,55.49
2019-03-01T16:17:52.444Z,55.81
2019-03-01T16:20:25.144Z,55.96
2019-03-01T16:22:54.033Z,56.17
2019-03-01T16:25:25.305Z,56.32
2019-03-01T16:27:55.179Z,56.50
2019-03-01T16:30:25.451Z,56.64
2019-03-01T16:32:55.251Z,56.25
2019-03-01T16:35:25.760Z,56.19
2019-03-01T16:37:57.796Z,56.10
2019-03-01T16:40:28.375Z,56.30
2019-03-01T16:42:59.588Z,56.39
2019-03-01T16:45:29.216Z,56.55
2019-03-01T16:48:00.838Z,56.65
2019-03-01T16:50:30.230Z,56.38
2019-03-01T16:53:04.592Z,56.22
2019-03-01T16:55:34.391Z,56.27
2019-03-01T16:58:07.475Z,56.47
2019-03-01T17:00:35.475Z,56.42
2019-03-01T17:03:10.239Z,56.42
2019-03-01T17:05:39.850Z,56.61
2019-03-01T17:08:11.761Z,56.66
2019-03-01T17:10:42.610Z,56.62
2019-03-01T17:13:12.234Z,56.64
2019-03-01T17:15:45.594Z,56.83
2019-03-01T17:18:15.984Z,56.85
2019-03-01T17:20:45.871Z,56.92
2019-03-01T17:23:16.019Z,57.10
2019-03-01T17:25:47.716Z,57.10
2019-03-01T17:28:22.626Z,57.20
2019-03-01T17:30:50.866Z,57.33
2019-03-01T17:33:20.375Z,57.45
2019-03-01T17:35:52.138Z,57.27
2019-03-01T17:38:23.388Z,57.34
2019-03-01T17:40:53.393Z,57.34
2019-03-01T17:43:23.017Z,57.43
2019-03-01T17:45:54.427Z,57.38
2019-03-01T17:48:25.056Z,57.34
2019-03-01T17:50:54.695Z,57.45
2019-03-01T17:53:24.320Z,57.61
2019-03-01T17:55:54.668Z,57.61
2019-03-01T17:58:24.317Z,57.57
2019-03-01T18:00:53.949Z,57.71
2019-03-01T18:03:23.606Z,57.93
2019-03-01T18:05:55.484Z,58.19
2019-03-01T18:08:25.238Z,58.37
2019-03-01T18:10:56.692Z,58.65
2019-03-01T18:13:26.314Z,58.88
2019-03-01T18:15:56.225Z,59.13
2019-03-01T18:18:26.066Z,59.31
2019-03-01T18:20:55.694Z,59.18
2019-03-01T18:23:25.584Z,59.07
2019-03-01T18:25:55.420Z,58.90
2019-03-01T18:28:28.322Z,58.83
2019-03-01T18:30:58.940Z,58.83
2019-03-01T18:33:28.914Z,59.01
2019-03-01T18:35:59.423Z,59.10
2019-03-01T18:38:31.335Z,58.77
2019-03-01T18:41:02.829Z,58.56
2019-03-01T18:43:32.482Z,58.34
2019-03-01T18:46:02.260Z,58.31
2019-03-01T18:48:33.643Z,58.19
2019-03-01T18:51:08.513Z,58.09
2019-03-01T18:53:38.635Z,57.99
2019-03-01T18:56:08.399Z,58.01
2019-03-01T18:58:38.121Z,57.94
2019-03-01T19:01:10.870Z,57.76
2019-03-01T19:03:41.487Z,57.56
2019-03-01T19:06:16.281Z,57.57
2019-03-01T19:08:45.003Z,57.45
2019-03-01T19:11:14.609Z,57.45
2019-03-01T19:13:44.271Z,57.57
2019-03-01T19:16:14.260Z,57.59
2019-03-01T19:18:43.903Z,57.62
2019-03-01T19:21:13.968Z,57.96
2019-03-01T19:23:45.043Z,57.39
2019-03-01T19:26:14.663Z,57.20
2019-03-01T19:28:45.914Z,57.16
2019-03-01T19:31:15.635Z,57.21
2019-03-01T19:33:45.262Z,57.45
2019-03-01T19:36:15.362Z,57.65
2019-03-01T19:38:46.456Z,57.67
2019-03-01T19:41:20.023Z,57.72
2019-03-01T19:43:55.568Z,57.73
2019-03-01T19:46:20.329Z,57.84
2019-03-01T19:48:49.948Z,57.84
2019-03-01T19:51:19.408Z,58.08
2019-03-01T19:53:49.084Z,58.12
2019-03-01T19:56:18.962Z,58.11
2019-03-01T19:58:50.040Z,58.09
2019-03-01T20:01:19.773Z,58.19
2019-03-01T20:03:49.575Z,58.30
2019-03-01T20:06:19.205Z,58.33
2019-03-01T20:08:49.073Z,58.31
2019-03-01T20:11:19.483Z,58.39
2019-03-01T20:13:50.551Z,58.42
2019-03-01T20:16:22.584Z,58.46
2019-03-01T20:18:52.487Z,58.54
2019-03-01T20:21:22.187Z,58.79
2019-03-01T20:23:52.000Z,58.89
2019-03-01T20:26:23.529Z,58.67
2019-03-01T20:28:53.064Z,58.72
2019-03-01T20:31:23.862Z,58.80
2019-03-01T20:33:53.562Z,58.67
2019-03-01T20:36:23.195Z,58.78
2019-03-01T20:38:53.151Z,58.83
2019-03-01T20:41:22.807Z,58.31
2019-03-01T20:43:53.973Z,58.20
2019-03-01T20:46:24.497Z,58.16
2019-03-01T20:48:54.279Z,58.23
2019-03-01T20:51:26.885Z,58.18
2019-03-01T20:53:55.399Z,58.09
2019-03-01T20:56:25.211Z,58.13
2019-03-01T20:58:54.821Z,58.30
2019-03-01T21:01:24.586Z,58.38
2019-03-01T21:03:54.212Z,58.58
2019-03-01T21:06:24.393Z,58.72
2019-03-01T21:08:54.974Z,58.80
2019-03-01T21:11:25.499Z,58.85
2019-03-01T21:13:56.206Z,58.79
2019-03-01T21:16:25.882Z,58.83
2019-03-01T21:18:55.781Z,58.84
2019-03-01T21:21:28.859Z,58.81
2019-03-01T21:23:58.527Z,58.94
2019-03-01T21:26:28.156Z,58.97
2019-03-01T21:28:58.983Z,59.28
2019-03-01T21:31:31.802Z,59.62
2019-03-01T21:34:02.730Z,59.78
2019-03-01T21:36:33.808Z,59.92
2019-03-01T21:39:04.829Z,60.17
2019-03-01T21:41:34.824Z,60.60
2019-03-01T21:44:10.120Z,60.46
2019-03-01T21:46:35.840Z,60.30
2019-03-01T21:49:05.535Z,60.16
2019-03-01T21:51:35.480Z,59.93
2019-03-01T21:54:26.184Z,59.70
2019-03-01T21:56:57.060Z,59.49
2019-03-01T21:59:26.954Z,59.32
2019-03-01T22:01:57.002Z,59.20
2019-03-01T22:04:26.612Z,59.09
2019-03-01T22:07:01.763Z,59.26
2019-03-01T22:09:28.423Z,59.40
2019-03-01T22:11:58.236Z,59.28
2019-03-01T22:14:29.174Z,59.31
2019-03-01T22:16:59.089Z,59.39
2019-03-01T22:19:30.520Z,59.54
2019-03-01T22:22:00.172Z,59.75
2019-03-01T22:24:29.862Z,60.01
2019-03-01T22:26:59.483Z,60.38
2019-03-01T22:29:29.271Z,60.75
2019-03-01T22:31:59.060Z,61.07
2019-03-01T22:34:31.088Z,61.33
2019-03-01T22:36:59.998Z,61.61
2019-03-01T22:39:29.772Z,61.90
2019-03-01T22:41:59.400Z,62.04
2019-03-01T22:44:29.135Z,62.24
2019-03-01T22:47:00.727Z,62.47
2019-03-01T22:49:31.730Z,62.57
2019-03-01T22:52:02.261Z,62.61
2019-03-01T22:54:31.930Z,62.72
2019-03-01T22:57:01.565Z,62.86
2019-03-01T22:59:31.220Z,63.60
2019-03-01T23:02:04.472Z,63.61
2019-03-01T23:04:33.703Z,63.51
2019-03-01T23:07:03.342Z,63.81
2019-03-01T23:09:33.062Z,64.13
2019-03-01T23:12:04.709Z,64.50
2019-03-01T23:14:35.080Z,64.73
2019-03-01T23:17:04.852Z,64.94
2019-03-01T23:19:35.115Z,65.05
2019-03-01T23:22:07.566Z,65.14
2019-03-01T23:24:37.481Z,65.26
2019-03-01T23:27:07.603Z,65.31
2019-03-01T23:29:37.345Z,65.45
2019-03-01T23:32:07.029Z,65.36
2019-03-01T23:34:38.893Z,65.35
2019-03-01T23:37:08.490Z,65.23
2019-03-01T23:39:38.136Z,65.17
2019-03-01T23:42:08.131Z,65.20
2019-03-01T23:44:38.669Z,65.32
2019-03-01T23:47:09.268Z,65.98
2019-03-01T23:49:39.155Z,65.26
2019-03-01T23:52:08.904Z,64.74
2019-03-01T23:54:40.713Z,64.65
2019-03-01T23:57:10.326Z,64.66
2019-03-01T23:59:39.962Z,64.67
